Stone Cabin, Nevada Weather observations

Data are for observation ending at time listed.
 Day   Time    Ave.   Ave.  Ave.  Vector   Max.   Stn.    Total    Solar   Ave.  
  of    of     Air    Rel.  Wind   Wind    Wind   Baro.  Precip.   Rad.    Soil  
Year   Day     Temp.  Hum.  Speed  Dir.    Gust   Pres.                    Temp. 
2015   (PST)    F      %     mph   deg.    mph     mb.     in.     W/m2     F   
------------------------------------------------------------------------------
 187   21:00   68.7    37    3.3   217     13.7    825     0.00       0    70.0
 187   22:00   68.7    38    4.4   267     14.5    825     0.00       0    69.4
 187   23:00   67.1    42    6.8   276     14.8    826     0.00       0    69.0
 188    0:00   65.8    45    2.7   247     10.7    826     0.00       0    68.7
 188    1:00  99999.0   99999  99999.0   99999    99999.0    99999    99999.00   99999    99999.0
 188    2:00   62.8    52    0.4    37      3.0    824     0.00       0    67.8
 188    3:00   60.5    57    0.2    26      1.3    824     0.00       0    67.4
 188    4:00   58.4    59    0.9   334      3.6    824     0.00       0    66.9
 188    5:00   57.8    59    1.1   293      4.5    824     0.00       3    66.4
 188    6:00   57.7    60    1.3   313      4.5    825     0.00      33    66.1
 188    7:00   61.0    59    0.4   343      2.0    825     0.00     116    66.0
 188    8:00   65.5    52    0.6   304      3.4    825     0.00     216    66.4
 188    9:00   71.1    44    0.5    80      2.0    824     0.00     327    67.2
 188   10:00   71.9    43    0.5   104      2.8    824     0.00     315    68.1
 188   11:00   74.2    38    0.7    60      3.9    824     0.00     398    68.9
 188   12:00   80.0    27    2.2   196     13.7    824     0.00     942    70.2
 188   13:00   79.6    29    2.3   310     10.3    823     0.00     697    72.3
 188   14:00   77.6    27    6.1   161     15.7    822     0.00     296    72.1
 188   15:00   76.1    28    5.0   147     15.3    822     0.00     366    71.4
 188   16:00   78.2    30    3.6    48     15.2    821     0.00     566    71.2
 188   17:00   73.1    37    4.1    32     14.5    821     0.00     336    71.2
 188   18:00   72.8    38    3.1    32     13.8    821     0.00     223    70.8
 188   19:00   73.2    34    3.0    30      9.4    821     0.00     101    70.3
 188   20:00   69.8    38    2.4    27      8.3    821     0.00       3    69.8

Return to Stone Cabin, Nevada graphs page.


Western Regional Climate Center,wrcc@dri.edu